sensor_id;sensor_type;location;lat;lon;timestamp;P1;durP1;ratioP1;P2;durP2;ratioP2
23614;SDS011;11985;49.404;7.734;2023-06-24T00:04:44;4.60;;;3.30;;
23614;SDS011;11985;49.404;7.734;2023-06-24T00:09:45;6.80;;;3.00;;
23614;SDS011;11985;49.404;7.734;2023-06-24T00:14:49;4.60;;;3.38;;
23614;SDS011;11985;49.404;7.734;2023-06-24T00:19:51;5.43;;;3.40;;
23614;SDS011;11985;49.404;7.734;2023-06-24T00:24:54;3.50;;;3.20;;
23614;SDS011;11985;49.404;7.734;2023-06-24T00:29:58;5.22;;;3.13;;
23614;SDS011;11985;49.404;7.734;2023-06-24T00:34:59;5.70;;;3.60;;
23614;SDS011;11985;49.404;7.734;2023-06-24T00:40:01;4.65;;;3.42;;
23614;SDS011;11985;49.404;7.734;2023-06-24T00:45:05;5.43;;;3.95;;
23614;SDS011;11985;49.404;7.734;2023-06-24T00:50:08;4.53;;;3.42;;
23614;SDS011;11985;49.404;7.734;2023-06-24T00:55:12;5.07;;;3.60;;
23614;SDS011;11985;49.404;7.734;2023-06-24T01:00:18;7.15;;;3.72;;
23614;SDS011;11985;49.404;7.734;2023-06-24T01:05:20;6.15;;;3.58;;
23614;SDS011;11985;49.404;7.734;2023-06-24T01:10:23;6.60;;;4.10;;
23614;SDS011;11985;49.404;7.734;2023-06-24T01:15:27;6.03;;;3.78;;
23614;SDS011;11985;49.404;7.734;2023-06-24T01:20:30;5.05;;;3.80;;
23614;SDS011;11985;49.404;7.734;2023-06-24T01:25:46;6.07;;;4.50;;
23614;SDS011;11985;49.404;7.734;2023-06-24T01:31:28;7.88;;;4.30;;
23614;SDS011;11985;49.404;7.734;2023-06-24T01:36:35;7.63;;;4.10;;
23614;SDS011;11985;49.404;7.734;2023-06-24T01:41:40;4.63;;;3.95;;
23614;SDS011;11985;49.404;7.734;2023-06-24T01:46:46;5.47;;;3.88;;
23614;SDS011;11985;49.404;7.734;2023-06-24T01:51:49;5.53;;;3.95;;
23614;SDS011;11985;49.404;7.734;2023-06-24T01:56:52;6.57;;;4.40;;
23614;SDS011;11985;49.404;7.734;2023-06-24T02:01:59;5.80;;;4.03;;
23614;SDS011;11985;49.404;7.734;2023-06-24T02:07:03;6.85;;;4.78;;
23614;SDS011;11985;49.404;7.734;2023-06-24T02:12:06;5.13;;;4.05;;
23614;SDS011;11985;49.404;7.734;2023-06-24T02:17:11;5.15;;;4.03;;
23614;SDS011;11985;49.404;7.734;2023-06-24T02:22:14;5.88;;;4.03;;
23614;SDS011;11985;49.404;7.734;2023-06-24T02:27:18;6.70;;;4.28;;
23614;SDS011;11985;49.404;7.734;2023-06-24T02:32:22;8.30;;;4.22;;
23614;SDS011;11985;49.404;7.734;2023-06-24T02:37:24;5.43;;;4.00;;
23614;SDS011;11985;49.404;7.734;2023-06-24T02:42:25;7.90;;;4.40;;
23614;SDS011;11985;49.404;7.734;2023-06-24T02:47:28;5.97;;;4.03;;
23614;SDS011;11985;49.404;7.734;2023-06-24T02:52:31;7.13;;;4.28;;
23614;SDS011;11985;49.404;7.734;2023-06-24T02:57:33;5.50;;;3.88;;
23614;SDS011;11985;49.404;7.734;2023-06-24T03:02:38;5.33;;;4.50;;
23614;SDS011;11985;49.404;7.734;2023-06-24T03:07:40;6.47;;;4.53;;
23614;SDS011;11985;49.404;7.734;2023-06-24T03:12:42;7.10;;;4.32;;
23614;SDS011;11985;49.404;7.734;2023-06-24T03:17:45;8.48;;;4.55;;
23614;SDS011;11985;49.404;7.734;2023-06-24T03:22:47;6.63;;;4.50;;
23614;SDS011;11985;49.404;7.734;2023-06-24T03:27:49;8.68;;;5.18;;
23614;SDS011;11985;49.404;7.734;2023-06-24T03:32:52;12.52;;;4.88;;
23614;SDS011;11985;49.404;7.734;2023-06-24T03:37:53;13.20;;;4.78;;
23614;SDS011;11985;49.404;7.734;2023-06-24T03:42:55;19.23;;;5.03;;
23614;SDS011;11985;49.404;7.734;2023-06-24T03:47:58;8.45;;;5.38;;
23614;SDS011;11985;49.404;7.734;2023-06-24T03:52:59;7.45;;;5.05;;
23614;SDS011;11985;49.404;7.734;2023-06-24T03:58:01;6.07;;;4.57;;
23614;SDS011;11985;49.404;7.734;2023-06-24T04:03:04;6.18;;;4.93;;
23614;SDS011;11985;49.404;7.734;2023-06-24T04:08:05;8.50;;;4.93;;
23614;SDS011;11985;49.404;7.734;2023-06-24T04:13:07;7.28;;;5.30;;
23614;SDS011;11985;49.404;7.734;2023-06-24T04:18:10;6.95;;;5.38;;
23614;SDS011;11985;49.404;7.734;2023-06-24T04:23:12;12.27;;;5.13;;
23614;SDS011;11985;49.404;7.734;2023-06-24T04:28:14;6.25;;;4.82;;
23614;SDS011;11985;49.404;7.734;2023-06-24T04:33:17;6.53;;;5.00;;
23614;SDS011;11985;49.404;7.734;2023-06-24T04:38:18;10.48;;;5.13;;
23614;SDS011;11985;49.404;7.734;2023-06-24T04:43:20;7.60;;;4.60;;
23614;SDS011;11985;49.404;7.734;2023-06-24T04:48:23;8.60;;;5.32;;
23614;SDS011;11985;49.404;7.734;2023-06-24T04:53:25;8.55;;;4.72;;
23614;SDS011;11985;49.404;7.734;2023-06-24T04:58:27;4.85;;;4.30;;
23614;SDS011;11985;49.404;7.734;2023-06-24T05:03:30;7.28;;;4.90;;
23614;SDS011;11985;49.404;7.734;2023-06-24T05:08:31;10.93;;;5.60;;
23614;SDS011;11985;49.404;7.734;2023-06-24T05:13:33;10.85;;;4.65;;
23614;SDS011;11985;49.404;7.734;2023-06-24T05:18:36;7.57;;;4.53;;
23614;SDS011;11985;49.404;7.734;2023-06-24T05:23:37;5.10;;;4.25;;
23614;SDS011;11985;49.404;7.734;2023-06-24T05:28:39;4.80;;;4.30;;
23614;SDS011;11985;49.404;7.734;2023-06-24T05:33:42;5.70;;;4.55;;
23614;SDS011;11985;49.404;7.734;2023-06-24T05:38:43;6.25;;;4.28;;
23614;SDS011;11985;49.404;7.734;2023-06-24T05:43:45;6.35;;;4.15;;
23614;SDS011;11985;49.404;7.734;2023-06-24T05:48:48;5.07;;;3.85;;
23614;SDS011;11985;49.404;7.734;2023-06-24T05:53:49;4.57;;;4.07;;
23614;SDS011;11985;49.404;7.734;2023-06-24T05:58:51;5.35;;;4.13;;
23614;SDS011;11985;49.404;7.734;2023-06-24T06:03:54;5.72;;;3.78;;
23614;SDS011;11985;49.404;7.734;2023-06-24T06:08:55;7.35;;;3.95;;
23614;SDS011;11985;49.404;7.734;2023-06-24T06:13:57;3.97;;;3.38;;
23614;SDS011;11985;49.404;7.734;2023-06-24T06:19:00;6.68;;;4.22;;
23614;SDS011;11985;49.404;7.734;2023-06-24T06:24:02;12.13;;;3.80;;
23614;SDS011;11985;49.404;7.734;2023-06-24T06:29:03;6.47;;;3.42;;
23614;SDS011;11985;49.404;7.734;2023-06-24T06:34:06;4.72;;;3.88;;
23614;SDS011;11985;49.404;7.734;2023-06-24T06:39:08;4.43;;;3.67;;
23614;SDS011;11985;49.404;7.734;2023-06-24T06:44:10;5.10;;;3.90;;
23614;SDS011;11985;49.404;7.734;2023-06-24T06:49:13;4.93;;;3.47;;
23614;SDS011;11985;49.404;7.734;2023-06-24T06:54:14;4.68;;;3.47;;
23614;SDS011;11985;49.404;7.734;2023-06-24T06:59:16;9.63;;;4.15;;
23614;SDS011;11985;49.404;7.734;2023-06-24T07:04:19;5.78;;;3.60;;
23614;SDS011;11985;49.404;7.734;2023-06-24T07:09:20;7.15;;;3.80;;
23614;SDS011;11985;49.404;7.734;2023-06-24T07:14:22;6.50;;;3.70;;
23614;SDS011;11985;49.404;7.734;2023-06-24T07:19:25;5.85;;;3.70;;
23614;SDS011;11985;49.404;7.734;2023-06-24T07:24:26;5.78;;;4.10;;
23614;SDS011;11985;49.404;7.734;2023-06-24T07:29:28;7.43;;;4.32;;
23614;SDS011;11985;49.404;7.734;2023-06-24T07:34:31;4.57;;;3.67;;
23614;SDS011;11985;49.404;7.734;2023-06-24T07:39:32;4.45;;;3.67;;
23614;SDS011;11985;49.404;7.734;2023-06-24T07:44:34;4.07;;;3.50;;
23614;SDS011;11985;49.404;7.734;2023-06-24T07:49:38;6.78;;;3.75;;
23614;SDS011;11985;49.404;7.734;2023-06-24T07:54:40;7.15;;;3.67;;
23614;SDS011;11985;49.404;7.734;2023-06-24T07:59:42;4.75;;;4.03;;
23614;SDS011;11985;49.404;7.734;2023-06-24T08:04:45;5.60;;;3.78;;
23614;SDS011;11985;49.404;7.734;2023-06-24T08:09:47;3.88;;;3.30;;
23614;SDS011;11985;49.404;7.734;2023-06-24T08:14:48;4.88;;;4.10;;
23614;SDS011;11985;49.404;7.734;2023-06-24T08:19:51;5.45;;;3.92;;
23614;SDS011;11985;49.404;7.734;2023-06-24T08:24:53;7.00;;;3.35;;
23614;SDS011;11985;49.404;7.734;2023-06-24T08:29:54;7.93;;;3.80;;
23614;SDS011;11985;49.404;7.734;2023-06-24T08:34:57;4.07;;;3.30;;
23614;SDS011;11985;49.404;7.734;2023-06-24T08:39:59;3.78;;;3.40;;
23614;SDS011;11985;49.404;7.734;2023-06-24T08:45:00;4.38;;;3.72;;
23614;SDS011;11985;49.404;7.734;2023-06-24T08:50:03;7.50;;;4.50;;
23614;SDS011;11985;49.404;7.734;2023-06-24T08:55:06;4.55;;;3.55;;
23614;SDS011;11985;49.404;7.734;2023-06-24T09:00:11;4.10;;;3.63;;
23614;SDS011;11985;49.404;7.734;2023-06-24T09:05:16;4.90;;;3.47;;
23614;SDS011;11985;49.404;7.734;2023-06-24T09:10:30;4.97;;;4.10;;
23614;SDS011;11985;49.404;7.734;2023-06-24T09:15:33;4.97;;;4.00;;
23614;SDS011;11985;49.404;7.734;2023-06-24T09:20:36;6.70;;;3.97;;
23614;SDS011;11985;49.404;7.734;2023-06-24T09:25:48;6.40;;;3.60;;
23614;SDS011;11985;49.404;7.734;2023-06-24T09:31:04;4.72;;;3.83;;
23614;SDS011;11985;49.404;7.734;2023-06-24T09:36:08;7.38;;;3.60;;
23614;SDS011;11985;49.404;7.734;2023-06-24T09:41:13;5.30;;;3.58;;
23614;SDS011;11985;49.404;7.734;2023-06-24T09:46:15;4.07;;;3.10;;
23614;SDS011;11985;49.404;7.734;2023-06-24T09:51:19;5.50;;;3.63;;
23614;SDS011;11985;49.404;7.734;2023-06-24T09:56:22;4.07;;;3.35;;
23614;SDS011;11985;49.404;7.734;2023-06-24T10:01:24;5.25;;;3.30;;
23614;SDS011;11985;49.404;7.734;2023-06-24T10:06:27;4.53;;;3.50;;
23614;SDS011;11985;49.404;7.734;2023-06-24T10:11:30;6.00;;;2.95;;
23614;SDS011;11985;49.404;7.734;2023-06-24T10:16:31;6.45;;;3.63;;
23614;SDS011;11985;49.404;7.734;2023-06-24T10:21:49;3.63;;;3.15;;
23614;SDS011;11985;49.404;7.734;2023-06-24T10:26:51;4.22;;;3.00;;
23614;SDS011;11985;49.404;7.734;2023-06-24T10:31:53;7.18;;;3.75;;
23614;SDS011;11985;49.404;7.734;2023-06-24T10:36:58;4.20;;;3.70;;
23614;SDS011;11985;49.404;7.734;2023-06-24T10:47:42;4.30;;;3.33;;
23614;SDS011;11985;49.404;7.734;2023-06-24T10:52:47;4.40;;;3.55;;
23614;SDS011;11985;49.404;7.734;2023-06-24T10:57:50;5.20;;;2.88;;
23614;SDS011;11985;49.404;7.734;2023-06-24T11:02:51;6.28;;;3.20;;
23614;SDS011;11985;49.404;7.734;2023-06-24T11:07:54;3.33;;;3.03;;
23614;SDS011;11985;49.404;7.734;2023-06-24T11:12:58;4.68;;;3.25;;
23614;SDS011;11985;49.404;7.734;2023-06-24T11:18:07;5.50;;;3.42;;
23614;SDS011;11985;49.404;7.734;2023-06-24T11:23:11;4.65;;;3.50;;
23614;SDS011;11985;49.404;7.734;2023-06-24T11:28:14;4.47;;;3.47;;
23614;SDS011;11985;49.404;7.734;2023-06-24T11:33:25;3.50;;;2.85;;
23614;SDS011;11985;49.404;7.734;2023-06-24T11:38:29;4.55;;;3.63;;
23614;SDS011;11985;49.404;7.734;2023-06-24T11:43:32;7.20;;;3.38;;
23614;SDS011;11985;49.404;7.734;2023-06-24T11:48:38;5.80;;;3.13;;
23614;SDS011;11985;49.404;7.734;2023-06-24T11:53:42;4.43;;;3.58;;
23614;SDS011;11985;49.404;7.734;2023-06-24T11:58:47;3.67;;;3.30;;
23614;SDS011;11985;49.404;7.734;2023-06-24T12:03:51;3.50;;;3.20;;
23614;SDS011;11985;49.404;7.734;2023-06-24T12:08:54;3.47;;;3.08;;
23614;SDS011;11985;49.404;7.734;2023-06-24T12:13:56;4.47;;;3.03;;
23614;SDS011;11985;49.404;7.734;2023-06-24T12:18:57;3.70;;;3.08;;
23614;SDS011;11985;49.404;7.734;2023-06-24T12:24:00;4.25;;;3.22;;
23614;SDS011;11985;49.404;7.734;2023-06-24T12:29:02;4.13;;;3.43;;
23614;SDS011;11985;49.404;7.734;2023-06-24T12:34:04;4.15;;;3.30;;
23614;SDS011;11985;49.404;7.734;2023-06-24T12:39:07;4.47;;;3.63;;
23614;SDS011;11985;49.404;7.734;2023-06-24T12:44:09;3.87;;;3.47;;
23614;SDS011;11985;49.404;7.734;2023-06-24T12:49:10;5.80;;;3.45;;
23614;SDS011;11985;49.404;7.734;2023-06-24T12:54:13;4.00;;;3.15;;
23614;SDS011;11985;49.404;7.734;2023-06-24T12:59:15;5.30;;;3.03;;
23614;SDS011;11985;49.404;7.734;2023-06-24T13:04:16;3.50;;;3.20;;
23614;SDS011;11985;49.404;7.734;2023-06-24T13:09:21;5.00;;;3.85;;
23614;SDS011;11985;49.404;7.734;2023-06-24T13:14:22;4.73;;;3.50;;
23614;SDS011;11985;49.404;7.734;2023-06-24T13:19:25;8.50;;;4.70;;
23614;SDS011;11985;49.404;7.734;2023-06-24T13:24:28;4.65;;;3.67;;
23614;SDS011;11985;49.404;7.734;2023-06-24T13:29:30;4.35;;;3.55;;
23614;SDS011;11985;49.404;7.734;2023-06-24T13:34:31;4.65;;;3.10;;
23614;SDS011;11985;49.404;7.734;2023-06-24T13:39:37;6.93;;;4.00;;
23614;SDS011;11985;49.404;7.734;2023-06-24T13:44:38;4.53;;;3.60;;
23614;SDS011;11985;49.404;7.734;2023-06-24T13:49:40;5.25;;;3.65;;
23614;SDS011;11985;49.404;7.734;2023-06-24T13:54:43;4.55;;;3.55;;
23614;SDS011;11985;49.404;7.734;2023-06-24T13:59:45;4.55;;;3.75;;
23614;SDS011;11985;49.404;7.734;2023-06-24T14:04:48;5.72;;;3.88;;
23614;SDS011;11985;49.404;7.734;2023-06-24T14:09:51;3.83;;;3.40;;
23614;SDS011;11985;49.404;7.734;2023-06-24T14:14:52;4.38;;;3.70;;
23614;SDS011;11985;49.404;7.734;2023-06-24T14:19:54;4.25;;;3.58;;
23614;SDS011;11985;49.404;7.734;2023-06-24T14:24:57;6.18;;;3.67;;
23614;SDS011;11985;49.404;7.734;2023-06-24T14:29:58;9.43;;;3.57;;
23614;SDS011;11985;49.404;7.734;2023-06-24T14:35:00;5.75;;;3.90;;
23614;SDS011;11985;49.404;7.734;2023-06-24T14:40:03;3.40;;;3.10;;
23614;SDS011;11985;49.404;7.734;2023-06-24T14:45:06;5.85;;;3.60;;
23614;SDS011;11985;49.404;7.734;2023-06-24T14:50:08;5.43;;;3.65;;
23614;SDS011;11985;49.404;7.734;2023-06-24T14:55:11;6.05;;;3.33;;
23614;SDS011;11985;49.404;7.734;2023-06-24T15:00:13;7.37;;;3.80;;
23614;SDS011;11985;49.404;7.734;2023-06-24T15:05:15;4.00;;;3.60;;
23614;SDS011;11985;49.404;7.734;2023-06-24T15:10:18;5.70;;;3.58;;
23614;SDS011;11985;49.404;7.734;2023-06-24T15:15:19;8.02;;;3.45;;
23614;SDS011;11985;49.404;7.734;2023-06-24T15:20:21;3.58;;;3.20;;
23614;SDS011;11985;49.404;7.734;2023-06-24T15:25:24;3.83;;;3.33;;
23614;SDS011;11985;49.404;7.734;2023-06-24T15:30:26;5.60;;;3.38;;
23614;SDS011;11985;49.404;7.734;2023-06-24T15:35:28;5.13;;;3.35;;
23614;SDS011;11985;49.404;7.734;2023-06-24T15:40:32;3.80;;;3.20;;
23614;SDS011;11985;49.404;7.734;2023-06-24T15:45:33;6.03;;;3.17;;
23614;SDS011;11985;49.404;7.734;2023-06-24T15:50:35;5.93;;;3.30;;
23614;SDS011;11985;49.404;7.734;2023-06-24T15:55:38;5.57;;;2.95;;
23614;SDS011;11985;49.404;7.734;2023-06-24T16:00:39;5.93;;;3.47;;
23614;SDS011;11985;49.404;7.734;2023-06-24T16:05:41;4.13;;;3.38;;
23614;SDS011;11985;49.404;7.734;2023-06-24T16:10:44;4.53;;;3.45;;
23614;SDS011;11985;49.404;7.734;2023-06-24T16:15:46;3.58;;;3.10;;
23614;SDS011;11985;49.404;7.734;2023-06-24T16:20:47;4.03;;;3.30;;
23614;SDS011;11985;49.404;7.734;2023-06-24T16:25:50;3.95;;;3.03;;
23614;SDS011;11985;49.404;7.734;2023-06-24T16:30:52;3.93;;;3.17;;
23614;SDS011;11985;49.404;7.734;2023-06-24T16:35:53;5.55;;;3.10;;
23614;SDS011;11985;49.404;7.734;2023-06-24T16:40:56;4.45;;;3.70;;
23614;SDS011;11985;49.404;7.734;2023-06-24T16:45:58;6.90;;;3.70;;
23614;SDS011;11985;49.404;7.734;2023-06-24T16:50:59;3.83;;;3.20;;
23614;SDS011;11985;49.404;7.734;2023-06-24T16:56:02;7.90;;;4.72;;
23614;SDS011;11985;49.404;7.734;2023-06-24T17:01:04;3.97;;;3.28;;
23614;SDS011;11985;49.404;7.734;2023-06-24T17:06:05;7.28;;;5.38;;
23614;SDS011;11985;49.404;7.734;2023-06-24T17:11:09;5.40;;;3.53;;
23614;SDS011;11985;49.404;7.734;2023-06-24T17:16:10;4.00;;;3.60;;
23614;SDS011;11985;49.404;7.734;2023-06-24T17:21:12;5.53;;;4.43;;
23614;SDS011;11985;49.404;7.734;2023-06-24T17:26:15;4.35;;;3.50;;
23614;SDS011;11985;49.404;7.734;2023-06-24T17:31:16;4.95;;;4.30;;
23614;SDS011;11985;49.404;7.734;2023-06-24T17:36:18;5.15;;;3.67;;
23614;SDS011;11985;49.404;7.734;2023-06-24T17:41:21;4.30;;;3.65;;
23614;SDS011;11985;49.404;7.734;2023-06-24T17:46:23;5.30;;;3.30;;
23614;SDS011;11985;49.404;7.734;2023-06-24T17:51:24;3.85;;;3.42;;
23614;SDS011;11985;49.404;7.734;2023-06-24T17:56:27;5.35;;;3.60;;
23614;SDS011;11985;49.404;7.734;2023-06-24T18:01:29;7.30;;;3.75;;
23614;SDS011;11985;49.404;7.734;2023-06-24T18:06:30;5.22;;;3.20;;
23614;SDS011;11985;49.404;7.734;2023-06-24T18:11:33;5.18;;;3.60;;
23614;SDS011;11985;49.404;7.734;2023-06-24T18:16:36;3.60;;;3.22;;
23614;SDS011;11985;49.404;7.734;2023-06-24T18:21:41;5.85;;;3.70;;
23614;SDS011;11985;49.404;7.734;2023-06-24T18:26:44;5.68;;;3.40;;
23614;SDS011;11985;49.404;7.734;2023-06-24T18:31:45;4.32;;;3.60;;
23614;SDS011;11985;49.404;7.734;2023-06-24T18:36:47;6.70;;;4.60;;
23614;SDS011;11985;49.404;7.734;2023-06-24T18:41:50;4.82;;;4.32;;
23614;SDS011;11985;49.404;7.734;2023-06-24T18:46:51;5.55;;;3.83;;
23614;SDS011;11985;49.404;7.734;2023-06-24T18:51:53;10.57;;;3.80;;
23614;SDS011;11985;49.404;7.734;2023-06-24T18:56:56;6.63;;;3.58;;
23614;SDS011;11985;49.404;7.734;2023-06-24T19:01:57;5.00;;;4.15;;
23614;SDS011;11985;49.404;7.734;2023-06-24T19:06:59;5.30;;;3.53;;
23614;SDS011;11985;49.404;7.734;2023-06-24T19:12:02;5.10;;;3.97;;
23614;SDS011;11985;49.404;7.734;2023-06-24T19:17:04;10.40;;;4.65;;
23614;SDS011;11985;49.404;7.734;2023-06-24T19:22:05;4.70;;;3.70;;
23614;SDS011;11985;49.404;7.734;2023-06-24T19:27:09;8.38;;;4.72;;
23614;SDS011;11985;49.404;7.734;2023-06-24T19:32:10;4.80;;;3.90;;
23614;SDS011;11985;49.404;7.734;2023-06-24T19:37:12;8.40;;;4.18;;
23614;SDS011;11985;49.404;7.734;2023-06-24T19:42:16;5.78;;;4.25;;
23614;SDS011;11985;49.404;7.734;2023-06-24T19:47:17;5.75;;;4.15;;
23614;SDS011;11985;49.404;7.734;2023-06-24T19:52:19;4.72;;;3.38;;
23614;SDS011;11985;49.404;7.734;2023-06-24T19:57:22;6.43;;;4.30;;
23614;SDS011;11985;49.404;7.734;2023-06-24T20:02:24;5.38;;;3.90;;
23614;SDS011;11985;49.404;7.734;2023-06-24T20:07:26;6.65;;;4.60;;
23614;SDS011;11985;49.404;7.734;2023-06-24T20:12:28;8.10;;;4.78;;
23614;SDS011;11985;49.404;7.734;2023-06-24T20:17:30;6.25;;;3.80;;
23614;SDS011;11985;49.404;7.734;2023-06-24T20:22:32;8.40;;;3.80;;
23614;SDS011;11985;49.404;7.734;2023-06-24T20:27:35;5.50;;;4.38;;
23614;SDS011;11985;49.404;7.734;2023-06-24T20:32:36;5.82;;;3.95;;
23614;SDS011;11985;49.404;7.734;2023-06-24T20:37:38;5.32;;;3.92;;
23614;SDS011;11985;49.404;7.734;2023-06-24T20:42:41;4.75;;;3.83;;
23614;SDS011;11985;49.404;7.734;2023-06-24T20:47:42;5.20;;;4.22;;
23614;SDS011;11985;49.404;7.734;2023-06-24T20:52:44;5.47;;;3.78;;
23614;SDS011;11985;49.404;7.734;2023-06-24T20:57:47;6.97;;;4.43;;
23614;SDS011;11985;49.404;7.734;2023-06-24T21:02:48;5.57;;;4.47;;
23614;SDS011;11985;49.404;7.734;2023-06-24T21:07:50;8.23;;;4.35;;
23614;SDS011;11985;49.404;7.734;2023-06-24T21:12:53;5.25;;;3.97;;
23614;SDS011;11985;49.404;7.734;2023-06-24T21:17:54;8.43;;;4.53;;
23614;SDS011;11985;49.404;7.734;2023-06-24T21:22:56;9.23;;;4.60;;
23614;SDS011;11985;49.404;7.734;2023-06-24T21:27:59;5.47;;;3.88;;
23614;SDS011;11985;49.404;7.734;2023-06-24T21:33:00;5.82;;;4.13;;
23614;SDS011;11985;49.404;7.734;2023-06-24T21:38:02;6.82;;;5.20;;
23614;SDS011;11985;49.404;7.734;2023-06-24T21:43:05;6.15;;;4.50;;
23614;SDS011;11985;49.404;7.734;2023-06-24T21:48:06;9.52;;;5.05;;
23614;SDS011;11985;49.404;7.734;2023-06-24T21:53:08;6.07;;;4.75;;
23614;SDS011;11985;49.404;7.734;2023-06-24T21:58:11;5.72;;;4.50;;
23614;SDS011;11985;49.404;7.734;2023-06-24T22:03:12;5.82;;;4.22;;
23614;SDS011;11985;49.404;7.734;2023-06-24T22:08:14;6.38;;;4.43;;
23614;SDS011;11985;49.404;7.734;2023-06-24T22:13:18;7.45;;;5.25;;
23614;SDS011;11985;49.404;7.734;2023-06-24T22:18:20;6.03;;;4.25;;
23614;SDS011;11985;49.404;7.734;2023-06-24T22:23:22;8.07;;;4.25;;
23614;SDS011;11985;49.404;7.734;2023-06-24T22:28:25;7.13;;;4.82;;
23614;SDS011;11985;49.404;7.734;2023-06-24T22:33:26;10.60;;;4.53;;
23614;SDS011;11985;49.404;7.734;2023-06-24T22:38:28;7.28;;;5.80;;
23614;SDS011;11985;49.404;7.734;2023-06-24T22:43:30;7.28;;;5.07;;
23614;SDS011;11985;49.404;7.734;2023-06-24T22:48:32;6.65;;;4.85;;
23614;SDS011;11985;49.404;7.734;2023-06-24T22:53:33;6.57;;;4.65;;
23614;SDS011;11985;49.404;7.734;2023-06-24T22:58:36;7.35;;;4.60;;
23614;SDS011;11985;49.404;7.734;2023-06-24T23:03:38;7.22;;;5.45;;
23614;SDS011;11985;49.404;7.734;2023-06-24T23:08:41;6.22;;;4.68;;
23614;SDS011;11985;49.404;7.734;2023-06-24T23:13:44;6.70;;;4.70;;
23614;SDS011;11985;49.404;7.734;2023-06-24T23:18:46;7.07;;;4.70;;
23614;SDS011;11985;49.404;7.734;2023-06-24T23:23:48;8.93;;;5.20;;
23614;SDS011;11985;49.404;7.734;2023-06-24T23:28:53;6.20;;;5.10;;
23614;SDS011;11985;49.404;7.734;2023-06-24T23:34:06;6.05;;;4.60;;
23614;SDS011;11985;49.404;7.734;2023-06-24T23:39:08;6.97;;;5.10;;
23614;SDS011;11985;49.404;7.734;2023-06-24T23:44:12;7.90;;;5.00;;
23614;SDS011;11985;49.404;7.734;2023-06-24T23:49:14;7.03;;;5.38;;
23614;SDS011;11985;49.404;7.734;2023-06-24T23:54:15;6.53;;;4.97;;
23614;SDS011;11985;49.404;7.734;2023-06-24T23:59:18;7.78;;;5.10;;
